METAR AND TAF INFORMATION
METAR FOR LIPQ
ADDS - METARS form results

(0403 UTC 26 February 2020)
Data provider http://aviationweather.gov/metar/data/
 
METAR text: LIPQ 260350Z AUTO 16005KT 2700 BCFG VV002 11/11 Q0998
Conditions at: LIPQ (RONCHI LEGIONARI, IT) observed 0350 UTC 26 February 2020
Temperature: 11.0°C (52°F)
Dewpoint: 11.0°C (52°F) [RH = 100%]
Pressure (altimeter): 29.47 inches Hg (998.0 mb)
Winds: from the SSE (160 degrees) at 6 MPH (5 knots; 2.6 m/s)
Visibility: 1.68 miles (2.70 km)
Ceiling: indefinite ceiling with vertical visibility of 200 feet AGL
Clouds: obscured sky
Weather: BCFG  (patches of fog)

METAR text: LIPQ 260320Z AUTO 15004KT 0250 R09/0900D FG VV002 11/11 Q0998
Conditions at: LIPQ (RONCHI LEGIONARI, IT) observed 0320 UTC 26 February 2020
Temperature: 11.0°C (52°F)
Dewpoint: 11.0°C (52°F) [RH = 100%]
Pressure (altimeter): 29.47 inches Hg (998.0 mb)
Winds: from the SSE (150 degrees) at 5 MPH (4 knots; 2.1 m/s)
Visibility: 0.16 miles (0.26 km)
Ceiling: indefinite ceiling with vertical visibility of 200 feet AGL
Clouds: obscured sky
Weather: FG  (fog)

Forecast for: LIPQ (RONCHI LEGIONARI, IT)
Text: TAF LIPQ 252300Z 2600/2624 VRB05KT 4000 RA SCT010 BKN020
Forecast period: 0000 to 0800 UTC 26 February 2020
Forecast type: FROM: standard forecast or significant change
Winds: variable direction winds at 6 MPH (5 knots; 2.6 m/s)
Visibility: 2.49 miles (4.01 km)
Ceiling: 2000 feet AGL
Clouds: scattered clouds at 1000 feet AGL
broken clouds at 2000 feet AGL
Weather: RA  (moderate rain)
Text: BECMG 2608/2610 21010KT
Forecast period: 0800 to 1600 UTC 26 February 2020
Forecast type: BECOMING: Conditions expected to become as follows by 1000 UTC 26 February 2020
Winds: from the SSW (210 degrees) at 12 MPH (10 knots; 5.1 m/s)
Visibility: 2.49 miles (4.01 km)
Ceiling: 2000 feet AGL
Clouds: scattered clouds at 1000 feet AGL
broken clouds at 2000 feet AGL
Weather: RA  (moderate rain)
Text: BECMG 2616/2618 04007KT 6000 NSW
Forecast period: 1600 UTC 26 February 2020 to 0000 UTC 27 February 2020
Forecast type: BECOMING: Conditions expected to become as follows by 1800 UTC 26 February 2020
Winds: from the NE (40 degrees) at 8 MPH (7 knots; 3.6 m/s)
Visibility: 4 miles (6 km)
Ceiling: 2000 feet AGL
Clouds: scattered clouds at 1000 feet AGL
broken clouds at 2000 feet AGL
Weather: NSW  (no significant weather)

 AIRPORT MAP

 RUNWAY INFORMATION
Runway 09 Runway length 9843 ft Runway width 148 ft
Runway elevation 37 ft Runway displaced threshold 656 ft Runway heading 90
Runway 27 Runway length 9843 ft Runway width 148 ft
Runway elevation 36 ft Runway displaced threshold 0 ft Runway heading 270

 AIRPORT FREQUENCIES
Type APP Name APP Frequency 119.175 MHZ
Type TWR Name TWR Frequency 130.2 MHZ

 AIRPORT NEAR NAVIGATION AIDS
Type VOR-DME Name Ronchi Frequency 114200 KHZ
Type NDB Name Ronchi Frequency 396 KHZ



Powered by Virtual Airlines Manager [v2.6.2]